createdAt,value
2018-04-24T00:00:27.839Z,83.85
2018-04-24T00:02:55.302Z,84.28
2018-04-24T00:05:22.771Z,84.38
2018-04-24T00:07:50.265Z,84.46
2018-04-24T00:10:17.727Z,84.05
2018-04-24T00:12:45.219Z,84.12
2018-04-24T00:15:12.690Z,84.44
2018-04-24T00:17:40.178Z,84.30
2018-04-24T00:20:07.742Z,84.51
2018-04-24T00:22:35.294Z,84.48
2018-04-24T00:25:02.770Z,84.74
2018-04-24T00:27:30.314Z,84.26
2018-04-24T00:29:57.779Z,83.75
2018-04-24T00:32:25.269Z,83.63
2018-04-24T00:34:52.768Z,83.12
2018-04-24T00:37:20.259Z,83.26
2018-04-24T00:39:47.829Z,83.57
2018-04-24T00:42:15.330Z,83.29
2018-04-24T00:44:42.798Z,83.18
2018-04-24T00:47:10.292Z,83.55
2018-04-24T00:49:37.772Z,83.64
2018-04-24T00:52:05.302Z,83.49
2018-04-24T00:54:32.768Z,83.47
2018-04-24T00:57:00.251Z,83.71
2018-04-24T00:59:28.666Z,84.22
2018-04-24T01:01:56.155Z,83.85
2018-04-24T01:04:23.614Z,83.76
2018-04-24T01:06:51.124Z,84.17
2018-04-24T01:09:18.594Z,84.64
2018-04-24T01:11:46.070Z,85.38
2018-04-24T01:14:13.567Z,85.95
2018-04-24T01:16:41.107Z,86.13
2018-04-24T01:19:08.599Z,86.63
2018-04-24T01:21:36.066Z,87.08
2018-04-24T01:24:03.570Z,87.37
2018-04-24T01:26:31.047Z,87.98
2018-04-24T01:28:58.632Z,88.44
2018-04-24T01:31:26.258Z,88.76
2018-04-24T01:33:53.750Z,88.93
2018-04-24T01:36:21.218Z,89.08
2018-04-24T01:38:48.744Z,89.37
2018-04-24T01:41:16.215Z,89.73
2018-04-24T01:43:43.715Z,89.84
2018-04-24T01:46:11.194Z,89.72
2018-04-24T01:48:38.699Z,89.19
2018-04-24T01:51:06.203Z,88.80
2018-04-24T01:53:33.693Z,88.29
2018-04-24T01:56:01.167Z,87.78
2018-04-24T01:58:28.654Z,87.62
2018-04-24T02:00:56.131Z,87.55
2018-04-24T02:03:23.642Z,87.74
2018-04-24T02:05:51.110Z,88.31
2018-04-24T02:08:18.612Z,88.52
2018-04-24T02:10:46.090Z,88.63
2018-04-24T02:13:13.622Z,89.00
2018-04-24T02:15:41.109Z,89.41
2018-04-24T02:18:08.773Z,89.85
2018-04-24T02:20:36.330Z,89.67
2018-04-24T02:23:03.819Z,89.34
2018-04-24T02:25:31.310Z,89.21
2018-04-24T02:27:58.779Z,88.96
2018-04-24T02:30:26.271Z,88.40
2018-04-24T02:32:53.750Z,87.29
2018-04-24T02:35:21.271Z,86.50
2018-04-24T02:37:48.738Z,86.06
2018-04-24T02:40:16.342Z,86.43
2018-04-24T02:42:43.739Z,86.86
2018-04-24T02:45:11.247Z,87.28
2018-04-24T02:47:38.771Z,87.90
2018-04-24T02:50:06.341Z,88.12
2018-04-24T02:52:33.893Z,88.38
2018-04-24T02:55:01.444Z,88.70
2018-04-24T02:57:29.013Z,89.02
2018-04-24T02:59:56.510Z,89.20
2018-04-24T03:02:23.984Z,89.50
2018-04-24T03:04:51.588Z,89.53
2018-04-24T03:07:19.068Z,89.59
2018-04-24T03:09:46.608Z,89.69
2018-04-24T03:12:14.079Z,89.68
2018-04-24T03:14:41.586Z,89.88
2018-04-24T03:17:09.059Z,90.22
2018-04-24T03:19:36.551Z,90.34
2018-04-24T03:22:04.036Z,90.31
2018-04-24T03:24:31.534Z,89.86
2018-04-24T03:26:59.114Z,89.60
2018-04-24T03:29:26.578Z,89.48
2018-04-24T03:31:54.142Z,89.33
2018-04-24T03:34:21.694Z,89.35
2018-04-24T03:36:49.190Z,89.33
2018-04-24T03:39:17.606Z,89.49
2018-04-24T03:41:50.765Z,89.58
2018-04-24T03:44:18.251Z,89.50
2018-04-24T03:46:45.743Z,89.31
2018-04-24T03:49:13.299Z,88.94
2018-04-24T03:51:40.846Z,88.55
2018-04-24T03:54:08.414Z,88.39
2018-04-24T03:56:35.978Z,88.26
2018-04-24T03:59:03.446Z,88.13
2018-04-24T04:01:30.942Z,88.03
2018-04-24T04:03:58.435Z,87.94
2018-04-24T04:06:25.931Z,87.80
2018-04-24T04:08:53.400Z,87.94
2018-04-24T04:11:20.927Z,88.02
2018-04-24T04:13:48.401Z,88.18
2018-04-24T04:16:15.914Z,88.14
2018-04-24T04:18:55.614Z,88.08
2018-04-24T04:21:36.050Z,87.51
2018-04-24T04:24:15.431Z,87.05
2018-04-24T04:26:43.018Z,86.42
2018-04-24T04:29:10.532Z,86.04
2018-04-24T04:31:38.031Z,85.73
2018-04-24T04:34:05.514Z,85.82
2018-04-24T04:36:33.006Z,86.43
2018-04-24T04:39:00.567Z,86.06
2018-04-24T04:41:28.130Z,85.82
2018-04-24T04:43:55.554Z,85.99
2018-04-24T04:46:23.042Z,86.01
2018-04-24T04:48:50.642Z,86.06
2018-04-24T04:51:18.159Z,86.22
2018-04-24T04:53:45.627Z,86.54
2018-04-24T04:56:13.177Z,86.97
2018-04-24T04:58:40.640Z,87.17
2018-04-24T05:01:08.146Z,87.47
2018-04-24T05:03:35.623Z,87.59
2018-04-24T05:06:03.105Z,87.85
2018-04-24T05:08:30.649Z,88.23
2018-04-24T05:10:58.138Z,88.47
2018-04-24T05:13:25.686Z,88.66
2018-04-24T05:15:53.153Z,88.80
2018-04-24T05:18:20.651Z,88.96
2018-04-24T05:20:48.135Z,89.17
2018-04-24T05:23:15.626Z,89.32
2018-04-24T05:25:43.101Z,89.42
2018-04-24T05:28:10.606Z,89.29
2018-04-24T05:30:38.084Z,88.29
2018-04-24T05:33:05.607Z,87.18
2018-04-24T05:35:33.116Z,86.56
2018-04-24T05:38:00.669Z,85.79
2018-04-24T05:40:28.138Z,84.37
2018-04-24T05:42:55.640Z,82.90
2018-04-24T05:45:23.174Z,81.03
2018-04-24T05:47:50.745Z,79.76
2018-04-24T05:50:18.266Z,79.40
2018-04-24T05:52:45.826Z,79.30
2018-04-24T05:55:13.300Z,79.72
2018-04-24T05:57:40.793Z,80.04
2018-04-24T06:00:08.279Z,80.89
2018-04-24T06:02:35.766Z,80.69
2018-04-24T06:05:03.238Z,81.02
2018-04-24T06:07:30.726Z,81.43
2018-04-24T06:09:58.231Z,81.39
2018-04-24T06:12:25.724Z,81.46
2018-04-24T06:14:53.255Z,80.97
2018-04-24T06:17:20.815Z,80.57
2018-04-24T06:19:48.370Z,80.60
2018-04-24T06:22:15.842Z,80.45
2018-04-24T06:24:43.341Z,79.39
2018-04-24T06:27:10.822Z,78.96
2018-04-24T06:29:38.306Z,78.40
2018-04-24T06:32:05.791Z,77.67
2018-04-24T06:34:33.311Z,76.65
2018-04-24T06:37:00.774Z,76.09
2018-04-24T06:39:28.257Z,75.29
2018-04-24T06:41:55.875Z,74.34
2018-04-24T06:44:23.373Z,73.76
2018-04-24T06:46:50.946Z,73.58
2018-04-24T06:49:18.441Z,73.14
2018-04-24T06:51:45.907Z,72.80
2018-04-24T06:54:13.390Z,73.15
2018-04-24T06:56:40.918Z,73.39
2018-04-24T06:59:08.411Z,72.61
2018-04-24T07:01:35.880Z,73.01
2018-04-24T07:04:03.403Z,72.37
2018-04-24T07:06:30.968Z,71.96
2018-04-24T07:08:58.420Z,72.03
2018-04-24T07:11:26.051Z,72.23
2018-04-24T07:13:53.622Z,71.62
2018-04-24T07:16:21.267Z,70.97
2018-04-24T07:18:48.791Z,70.07
2018-04-24T07:21:16.327Z,70.30
2018-04-24T07:23:43.815Z,69.17
2018-04-24T07:26:11.278Z,69.36
2018-04-24T07:28:38.771Z,68.47
2018-04-24T07:31:06.686Z,68.00
2018-04-24T07:33:34.182Z,67.09
2018-04-24T07:36:01.686Z,67.56
2018-04-24T07:38:29.160Z,67.57
2018-04-24T07:40:56.643Z,67.56
2018-04-24T07:43:24.170Z,66.61
2018-04-24T07:45:51.650Z,66.44
2018-04-24T07:48:19.199Z,66.45
2018-04-24T07:50:46.700Z,66.17
2018-04-24T07:53:14.177Z,66.44
2018-04-24T07:55:41.677Z,65.48
2018-04-24T07:58:09.138Z,65.00
2018-04-24T08:00:36.635Z,65.14
2018-04-24T08:03:04.109Z,64.83
2018-04-24T08:05:31.602Z,63.78
2018-04-24T08:07:59.062Z,63.77
2018-04-24T08:10:26.555Z,63.53
2018-04-24T08:12:54.031Z,63.47
2018-04-24T08:15:21.662Z,63.47
2018-04-24T08:17:49.130Z,62.71
2018-04-24T08:20:16.626Z,62.08
2018-04-24T08:22:44.109Z,62.12
2018-04-24T08:25:11.590Z,61.66
2018-04-24T08:27:39.071Z,60.81
2018-04-24T08:30:06.571Z,60.83
2018-04-24T08:32:34.061Z,60.89
2018-04-24T08:35:01.611Z,59.19
2018-04-24T08:37:29.098Z,59.49
2018-04-24T08:39:56.584Z,59.92
2018-04-24T08:42:24.078Z,58.30
2018-04-24T08:44:51.538Z,57.77
2018-04-24T08:47:19.098Z,56.17
2018-04-24T08:49:46.684Z,55.80
2018-04-24T08:52:14.179Z,54.37
2018-04-24T08:54:41.656Z,54.19
2018-04-24T08:57:09.150Z,55.21
2018-04-24T08:59:36.690Z,53.92
2018-04-24T09:02:04.236Z,55.27
2018-04-24T09:04:31.709Z,53.48
2018-04-24T09:06:59.199Z,53.50
2018-04-24T09:09:26.663Z,52.39
2018-04-24T09:11:54.159Z,52.44
2018-04-24T09:14:21.666Z,50.81
2018-04-24T09:16:49.155Z,49.55
2018-04-24T09:19:16.647Z,49.50
2018-04-24T09:21:44.149Z,49.70
2018-04-24T09:24:11.719Z,49.29
2018-04-24T09:26:39.232Z,48.65
2018-04-24T09:29:07.761Z,47.47
2018-04-24T09:31:40.934Z,45.52
2018-04-24T09:34:08.398Z,46.09
2018-04-24T09:36:35.964Z,46.60
2018-04-24T09:39:03.521Z,47.29
2018-04-24T09:41:30.952Z,46.14
2018-04-24T09:43:58.518Z,46.10
2018-04-24T09:46:26.015Z,43.89
2018-04-24T09:48:53.575Z,40.96
2018-04-24T09:51:21.144Z,38.26
2018-04-24T09:53:48.590Z,37.49
2018-04-24T09:56:16.096Z,35.36
2018-04-24T09:58:43.606Z,34.48
2018-04-24T10:01:11.136Z,37.20
2018-04-24T10:03:38.650Z,34.61
2018-04-24T10:06:10.296Z,32.20
2018-04-24T10:08:37.859Z,31.30
2018-04-24T10:11:05.335Z,30.58
2018-04-24T10:13:32.865Z,31.95
2018-04-24T10:16:00.343Z,30.61
2018-04-24T10:18:27.875Z,31.21
2018-04-24T10:20:55.361Z,30.59
2018-04-24T10:23:22.867Z,32.14
2018-04-24T10:25:54.764Z,30.18
2018-04-24T10:28:22.523Z,29.79
2018-04-24T10:30:49.995Z,29.92
2018-04-24T10:33:17.614Z,29.64
2018-04-24T10:35:45.078Z,29.40
2018-04-24T10:38:12.634Z,27.39
2018-04-24T10:40:40.094Z,27.70
2018-04-24T10:43:07.658Z,27.90
2018-04-24T10:45:35.131Z,26.76
2018-04-24T10:48:02.646Z,28.02
2018-04-24T10:50:30.128Z,28.80
2018-04-24T10:52:57.587Z,26.58
2018-04-24T10:55:25.075Z,27.82
2018-04-24T10:57:52.566Z,26.48
2018-04-24T11:00:20.154Z,24.84
2018-04-24T11:02:47.716Z,24.68
2018-04-24T11:05:15.215Z,25.25
2018-04-24T11:07:42.687Z,23.96
2018-04-24T11:10:10.338Z,25.86
2018-04-24T11:12:37.855Z,21.96
2018-04-24T11:15:05.375Z,21.01
2018-04-24T11:17:32.842Z,22.06
2018-04-24T11:20:00.382Z,24.57
2018-04-24T11:22:27.889Z,24.05
2018-04-24T11:24:55.403Z,21.96
2018-04-24T11:27:22.894Z,21.99
2018-04-24T11:29:50.374Z,21.13
2018-04-24T11:32:17.934Z,21.70
2018-04-24T11:34:45.418Z,20.97
2018-04-24T11:37:12.883Z,21.09
2018-04-24T11:39:40.383Z,23.32
2018-04-24T11:42:07.851Z,21.34
2018-04-24T11:44:35.338Z,22.05
2018-04-24T11:47:02.850Z,22.56
2018-04-24T11:49:30.373Z,20.37
2018-04-24T11:51:57.832Z,22.80
2018-04-24T11:54:25.338Z,19.81
2018-04-24T11:56:52.807Z,19.87
2018-04-24T11:59:20.299Z,18.87
2018-04-24T12:01:47.822Z,18.00
2018-04-24T12:04:15.294Z,16.25
2018-04-24T12:06:42.834Z,17.52
2018-04-24T12:09:10.338Z,19.45
2018-04-24T12:11:37.827Z,18.78
2018-04-24T12:14:05.311Z,19.11
2018-04-24T12:16:32.806Z,18.29
2018-04-24T12:19:00.330Z,18.08
2018-04-24T12:21:27.890Z,17.76
2018-04-24T12:23:55.350Z,16.84
2018-04-24T12:26:22.834Z,18.90
2018-04-24T12:28:50.290Z,20.60
2018-04-24T12:31:17.817Z,22.23
2018-04-24T12:33:45.283Z,24.47
2018-04-24T12:36:12.775Z,23.43
2018-04-24T12:38:40.239Z,18.80
2018-04-24T12:41:07.726Z,16.93
2018-04-24T12:43:35.193Z,19.02
2018-04-24T12:46:02.682Z,18.69
2018-04-24T12:48:30.154Z,20.26
2018-04-24T12:50:57.635Z,21.07
2018-04-24T12:53:25.151Z,19.95
2018-04-24T12:55:52.641Z,16.35
2018-04-24T12:58:20.107Z,13.78
2018-04-24T13:00:47.588Z,14.81
2018-04-24T13:03:15.121Z,15.74
2018-04-24T13:05:42.625Z,15.55
2018-04-24T13:08:10.138Z,15.97
2018-04-24T13:10:37.650Z,15.52
2018-04-24T13:13:05.179Z,15.23
2018-04-24T13:15:32.643Z,14.71
2018-04-24T13:18:00.136Z,15.28
2018-04-24T13:20:27.603Z,14.10
2018-04-24T13:22:55.081Z,13.70
2018-04-24T13:25:22.554Z,14.39
2018-04-24T13:27:50.079Z,14.68
2018-04-24T13:30:17.542Z,14.46
2018-04-24T13:32:45.078Z,14.22
2018-04-24T13:35:12.548Z,14.35
2018-04-24T13:37:40.143Z,13.42
2018-04-24T13:40:07.619Z,13.58
2018-04-24T13:42:35.167Z,14.55
2018-04-24T13:45:02.602Z,14.61
2018-04-24T13:47:30.115Z,17.71
2018-04-24T13:49:57.579Z,17.39
2018-04-24T13:52:25.071Z,16.01
2018-04-24T13:54:52.532Z,12.65
2018-04-24T13:57:20.018Z,13.80
2018-04-24T13:59:47.499Z,16.36
2018-04-24T14:02:15.023Z,17.97
2018-04-24T14:04:42.539Z,15.33
2018-04-24T14:07:10.028Z,15.95
2018-04-24T14:09:37.563Z,13.64
2018-04-24T14:12:05.144Z,12.44
2018-04-24T14:14:32.607Z,12.88
2018-04-24T14:17:00.122Z,12.87
2018-04-24T14:19:27.580Z,12.74
2018-04-24T14:21:55.051Z,13.46
2018-04-24T14:24:22.618Z,14.30
2018-04-24T14:26:50.079Z,14.46
2018-04-24T14:29:17.658Z,16.79
2018-04-24T14:31:45.123Z,14.23
2018-04-24T14:34:12.658Z,14.05
2018-04-24T14:36:40.127Z,13.48
2018-04-24T14:39:07.606Z,12.33
2018-04-24T14:41:35.173Z,14.56
2018-04-24T14:44:02.674Z,12.49
2018-04-24T14:46:30.283Z,11.64
2018-04-24T14:48:57.769Z,13.05
2018-04-24T14:51:25.235Z,13.29
2018-04-24T14:53:52.715Z,16.19
2018-04-24T14:56:20.279Z,16.11
2018-04-24T14:58:47.766Z,15.01
2018-04-24T15:01:15.312Z,15.68
2018-04-24T15:03:42.794Z,15.63
2018-04-24T15:06:10.416Z,15.88
2018-04-24T15:08:37.898Z,17.49
2018-04-24T15:11:05.382Z,16.57
2018-04-24T15:13:32.888Z,15.91
2018-04-24T15:16:01.245Z,17.39
2018-04-24T15:18:28.951Z,15.73
2018-04-24T15:20:56.423Z,15.80
2018-04-24T15:23:23.910Z,16.85
2018-04-24T15:25:51.444Z,19.68
2018-04-24T15:28:18.938Z,19.70
2018-04-24T15:30:46.407Z,20.41
2018-04-24T15:33:13.883Z,21.12
2018-04-24T15:35:41.371Z,21.85
2018-04-24T15:38:08.842Z,22.10
2018-04-24T15:40:36.363Z,23.30
2018-04-24T15:43:03.849Z,22.58
2018-04-24T15:45:31.340Z,20.80
2018-04-24T15:47:58.892Z,19.97
2018-04-24T15:50:26.385Z,19.28
2018-04-24T15:52:53.870Z,20.02
2018-04-24T15:55:21.350Z,19.32
2018-04-24T15:57:48.857Z,18.22
2018-04-24T16:00:16.342Z,17.60
2018-04-24T16:02:43.879Z,16.98
2018-04-24T16:05:11.383Z,16.67
2018-04-24T16:07:38.934Z,16.27
2018-04-24T16:10:06.542Z,16.97
2018-04-24T16:12:34.016Z,17.05
2018-04-24T16:15:01.507Z,16.37
2018-04-24T16:17:28.976Z,16.24
2018-04-24T16:19:56.507Z,16.59
2018-04-24T16:22:23.983Z,16.02
2018-04-24T16:24:51.482Z,15.78
2018-04-24T16:27:18.945Z,15.44
2018-04-24T16:29:46.535Z,15.77
2018-04-24T16:32:13.946Z,15.43
2018-04-24T16:34:41.455Z,15.10
2018-04-24T16:37:08.923Z,15.26
2018-04-24T16:39:36.459Z,15.26
2018-04-24T16:42:03.968Z,15.67
2018-04-24T16:44:31.555Z,16.26
2018-04-24T16:46:59.036Z,16.69
2018-04-24T16:49:26.592Z,17.10
2018-04-24T16:51:54.130Z,18.19
2018-04-24T16:54:21.765Z,17.90
2018-04-24T16:56:49.220Z,17.84
2018-04-24T16:59:16.698Z,18.76
2018-04-24T17:01:44.188Z,19.26
2018-04-24T17:04:11.703Z,20.75
2018-04-24T17:06:39.207Z,23.95
2018-04-24T17:09:06.703Z,27.20
2018-04-24T17:11:34.217Z,29.69
2018-04-24T17:14:01.687Z,31.43
2018-04-24T17:16:29.190Z,32.91
2018-04-24T17:18:56.737Z,33.52
2018-04-24T17:21:24.276Z,33.48
2018-04-24T17:23:51.749Z,33.87
2018-04-24T17:26:19.264Z,34.68
2018-04-24T17:28:46.723Z,34.96
2018-04-24T17:31:14.290Z,35.54
2018-04-24T17:33:41.830Z,36.11
2018-04-24T17:36:09.349Z,36.30
2018-04-24T17:38:36.823Z,36.71
2018-04-24T17:41:04.320Z,36.26
2018-04-24T17:43:32.027Z,35.95
2018-04-24T17:45:59.519Z,35.85
2018-04-24T17:48:26.994Z,36.28
2018-04-24T17:50:54.496Z,36.27
2018-04-24T17:53:21.958Z,37.43
2018-04-24T17:55:49.430Z,37.24
2018-04-24T17:58:17.041Z,38.28
2018-04-24T18:00:44.536Z,38.67
2018-04-24T18:03:12.035Z,39.29
2018-04-24T18:05:39.531Z,40.18
2018-04-24T18:08:07.020Z,40.94
2018-04-24T18:10:34.491Z,41.10
2018-04-24T18:13:02.013Z,41.53
2018-04-24T18:15:29.507Z,41.79
2018-04-24T18:17:57.019Z,43.24
2018-04-24T18:20:24.522Z,43.50
2018-04-24T18:22:52.083Z,43.78
2018-04-24T18:25:22.088Z,44.04
2018-04-24T18:27:49.812Z,44.49
2018-04-24T18:30:17.259Z,44.84
2018-04-24T18:32:44.751Z,44.99
2018-04-24T18:35:12.246Z,45.09
2018-04-24T18:37:43.057Z,45.78
2018-04-24T18:40:10.763Z,46.54
2018-04-24T18:42:38.237Z,46.03
2018-04-24T18:45:05.740Z,46.10
2018-04-24T18:47:33.263Z,46.31
2018-04-24T18:50:00.734Z,46.72
2018-04-24T18:52:28.248Z,46.79
2018-04-24T18:54:55.754Z,47.29
2018-04-24T18:57:23.224Z,47.63
2018-04-24T18:59:50.702Z,47.63
2018-04-24T19:02:18.208Z,47.81
2018-04-24T19:04:45.705Z,48.76
2018-04-24T19:07:13.172Z,48.22
2018-04-24T19:09:40.687Z,48.65
2018-04-24T19:12:08.178Z,48.88
2018-04-24T19:14:35.686Z,49.63
2018-04-24T19:17:03.256Z,50.11
2018-04-24T19:19:30.772Z,50.21
2018-04-24T19:21:58.281Z,49.92
2018-04-24T19:24:31.350Z,50.16
2018-04-24T19:26:58.826Z,50.30
2018-04-24T19:29:26.327Z,50.37
2018-04-24T19:31:59.450Z,50.80
2018-04-24T19:34:26.950Z,50.84
2018-04-24T19:36:54.471Z,50.24
2018-04-24T19:39:28.787Z,50.96
2018-04-24T19:41:56.306Z,50.72
2018-04-24T19:44:23.968Z,50.82
2018-04-24T19:46:51.731Z,50.86
2018-04-24T19:49:25.063Z,51.61
2018-04-24T19:51:52.578Z,51.05
2018-04-24T19:54:20.103Z,51.72
2018-04-24T19:56:47.575Z,51.84
2018-04-24T19:59:15.059Z,52.87
2018-04-24T20:01:42.543Z,53.16
2018-04-24T20:04:10.031Z,53.60
2018-04-24T20:06:37.502Z,54.72
2018-04-24T20:09:06.798Z,54.10
2018-04-24T20:11:34.370Z,54.23
2018-04-24T20:14:01.946Z,55.38
2018-04-24T20:16:29.406Z,56.02
2018-04-24T20:18:56.862Z,56.72
2018-04-24T20:21:24.361Z,56.31
2018-04-24T20:23:51.866Z,57.34
2018-04-24T20:26:19.466Z,57.17
2018-04-24T20:28:46.959Z,56.67
2018-04-24T20:31:14.445Z,57.13
2018-04-24T20:33:41.914Z,56.79
2018-04-24T20:36:09.401Z,57.02
2018-04-24T20:38:36.987Z,56.63
2018-04-24T20:41:04.475Z,57.00
2018-04-24T20:43:32.027Z,57.32
2018-04-24T20:45:59.515Z,57.68
2018-04-24T20:48:26.979Z,58.20
2018-04-24T20:50:54.507Z,57.95
2018-04-24T20:53:22.037Z,58.40
2018-04-24T20:55:49.478Z,58.93
2018-04-24T20:58:16.983Z,59.65
2018-04-24T21:00:44.487Z,59.69
2018-04-24T21:03:11.971Z,59.58
2018-04-24T21:05:39.458Z,60.08
2018-04-24T21:08:06.931Z,60.40
2018-04-24T21:10:34.438Z,60.87
2018-04-24T21:13:01.912Z,60.98
2018-04-24T21:15:29.491Z,61.54
2018-04-24T21:17:56.962Z,61.01
2018-04-24T21:20:24.463Z,60.94
2018-04-24T21:22:51.995Z,60.79
2018-04-24T21:25:19.523Z,60.55
2018-04-24T21:27:46.978Z,60.21
2018-04-24T21:30:14.443Z,60.49
2018-04-24T21:32:41.943Z,60.14
2018-04-24T21:35:09.478Z,60.46
2018-04-24T21:37:36.921Z,61.60
2018-04-24T21:40:04.467Z,61.78
2018-04-24T21:42:31.975Z,62.46
2018-04-24T21:44:59.506Z,62.81
2018-04-24T21:47:27.031Z,62.83
2018-04-24T21:49:54.507Z,63.28
2018-04-24T21:52:21.990Z,63.49
2018-04-24T21:54:49.511Z,63.47
2018-04-24T21:57:17.015Z,63.66
2018-04-24T21:59:44.529Z,64.26
2018-04-24T22:02:12.010Z,64.10
2018-04-24T22:04:39.550Z,64.28
2018-04-24T22:07:07.038Z,64.45
2018-04-24T22:09:34.591Z,64.59
2018-04-24T22:12:02.078Z,65.00
2018-04-24T22:14:29.551Z,64.76
2018-04-24T22:16:57.046Z,64.95
2018-04-24T22:19:24.512Z,65.58
2018-04-24T22:21:52.035Z,66.39
2018-04-24T22:24:19.527Z,65.49
2018-04-24T22:26:46.986Z,65.97
2018-04-24T22:29:14.473Z,66.42
2018-04-24T22:31:41.946Z,66.90
2018-04-24T22:34:09.422Z,67.16
2018-04-24T22:36:36.890Z,67.45
2018-04-24T22:39:04.387Z,67.38
2018-04-24T22:41:32.050Z,67.70
2018-04-24T22:43:59.530Z,68.07
2018-04-24T22:46:26.994Z,68.19
2018-04-24T22:48:54.473Z,68.35
2018-04-24T22:51:22.007Z,68.72
2018-04-24T22:53:49.513Z,68.89
2018-04-24T22:56:16.970Z,69.68
2018-04-24T22:58:44.488Z,70.76
2018-04-24T23:01:12.038Z,70.55
2018-04-24T23:03:39.535Z,70.44
2018-04-24T23:06:07.074Z,71.02
2018-04-24T23:08:34.624Z,71.49
2018-04-24T23:11:13.973Z,71.79
2018-04-24T23:13:53.214Z,72.13
2018-04-24T23:16:32.607Z,72.11
2018-04-24T23:19:11.927Z,72.10
2018-04-24T23:21:38.906Z,72.06
2018-04-24T23:24:06.391Z,72.29
2018-04-24T23:26:33.854Z,72.92
2018-04-24T23:29:01.345Z,72.88
2018-04-24T23:31:28.847Z,73.14
2018-04-24T23:33:56.326Z,73.51
2018-04-24T23:36:23.869Z,73.83
2018-04-24T23:38:51.361Z,74.14
2018-04-24T23:41:18.822Z,74.63
2018-04-24T23:43:46.344Z,74.92
2018-04-24T23:46:13.813Z,75.35
2018-04-24T23:48:41.362Z,75.62
2018-04-24T23:51:08.918Z,75.57
2018-04-24T23:53:36.383Z,76.33
2018-04-24T23:56:03.870Z,75.93
2018-04-24T23:58:31.326Z,75.93
